sensor_id;sensor_type;location;lat;lon;timestamp;P1;durP1;ratioP1;P2;durP2;ratioP2
13368;SDS011;6753;52.520;13.450;2023-05-10T00:00:01;980.70;;;788.20;;
13368;SDS011;6753;52.520;13.450;2023-05-10T00:00:14;982.00;;;790.33;;
13368;SDS011;6753;52.520;13.450;2023-05-10T00:00:25;981.90;;;789.72;;
13368;SDS011;6753;52.520;13.450;2023-05-10T00:00:36;979.58;;;790.25;;
13368;SDS011;6753;52.520;13.450;2023-05-10T00:00:51;977.28;;;789.55;;
13368;SDS011;6753;52.520;13.450;2023-05-10T00:01:01;972.70;;;788.15;;
13368;SDS011;6753;52.520;13.450;2023-05-10T00:01:12;973.00;;;787.88;;
13368;SDS011;6753;52.520;13.450;2023-05-10T00:01:23;973.28;;;786.50;;
13368;SDS011;6753;52.520;13.450;2023-05-10T00:01:34;978.08;;;787.75;;
13368;SDS011;6753;52.520;13.450;2023-05-10T00:01:45;976.42;;;785.97;;
13368;SDS011;6753;52.520;13.450;2023-05-10T00:01:55;977.13;;;785.33;;
13368;SDS011;6753;52.520;13.450;2023-05-10T00:02:07;974.05;;;784.65;;
13368;SDS011;6753;52.520;13.450;2023-05-10T00:02:18;967.97;;;781.30;;
13368;SDS011;6753;52.520;13.450;2023-05-10T00:02:29;963.23;;;780.27;;
13368;SDS011;6753;52.520;13.450;2023-05-10T00:02:39;959.97;;;779.90;;
13368;SDS011;6753;52.520;13.450;2023-05-10T00:02:50;953.95;;;777.85;;
13368;SDS011;6753;52.520;13.450;2023-05-10T00:03:01;953.30;;;776.65;;
13368;SDS011;6753;52.520;13.450;2023-05-10T00:03:14;950.90;;;776.05;;
13368;SDS011;6753;52.520;13.450;2023-05-10T00:03:25;953.43;;;776.57;;
13368;SDS011;6753;52.520;13.450;2023-05-10T00:03:36;953.33;;;774.10;;
13368;SDS011;6753;52.520;13.450;2023-05-10T00:03:47;961.03;;;777.28;;
13368;SDS011;6753;52.520;13.450;2023-05-10T00:04:01;963.05;;;778.10;;
13368;SDS011;6753;52.520;13.450;2023-05-10T00:04:11;966.92;;;779.78;;
13368;SDS011;6753;52.520;13.450;2023-05-10T00:04:22;969.83;;;782.20;;
13368;SDS011;6753;52.520;13.450;2023-05-10T00:04:37;973.53;;;786.47;;
13368;SDS011;6753;52.520;13.450;2023-05-10T00:04:47;969.65;;;785.75;;
13368;SDS011;6753;52.520;13.450;2023-05-10T00:04:59;968.15;;;785.00;;
13368;SDS011;6753;52.520;13.450;2023-05-10T00:05:10;965.17;;;783.97;;
13368;SDS011;6753;52.520;13.450;2023-05-10T00:05:21;959.40;;;782.05;;
13368;SDS011;6753;52.520;13.450;2023-05-10T00:05:33;955.30;;;779.00;;
13368;SDS011;6753;52.520;13.450;2023-05-10T00:05:43;950.10;;;776.42;;
13368;SDS011;6753;52.520;13.450;2023-05-10T00:05:54;947.80;;;775.47;;
13368;SDS011;6753;52.520;13.450;2023-05-10T00:06:05;949.07;;;775.17;;
13368;SDS011;6753;52.520;13.450;2023-05-10T00:06:16;951.15;;;775.00;;
13368;SDS011;6753;52.520;13.450;2023-05-10T00:06:27;954.83;;;775.42;;
13368;SDS011;6753;52.520;13.450;2023-05-10T00:06:38;956.88;;;775.42;;
13368;SDS011;6753;52.520;13.450;2023-05-10T00:06:49;958.20;;;775.97;;
13368;SDS011;6753;52.520;13.450;2023-05-10T00:07:02;958.33;;;777.03;;
13368;SDS011;6753;52.520;13.450;2023-05-10T00:07:13;956.30;;;777.72;;
13368;SDS011;6753;52.520;13.450;2023-05-10T00:07:24;960.85;;;778.78;;
13368;SDS011;6753;52.520;13.450;2023-05-10T00:07:35;968.30;;;782.90;;
13368;SDS011;6753;52.520;13.450;2023-05-10T00:07:45;974.33;;;787.75;;
13368;SDS011;6753;52.520;13.450;2023-05-10T00:07:56;982.23;;;792.43;;
13368;SDS011;6753;52.520;13.450;2023-05-10T00:08:08;986.63;;;795.28;;
13368;SDS011;6753;52.520;13.450;2023-05-10T00:08:19;988.10;;;795.65;;
13368;SDS011;6753;52.520;13.450;2023-05-10T00:08:30;981.75;;;794.40;;
13368;SDS011;6753;52.520;13.450;2023-05-10T00:08:40;977.30;;;792.80;;
13368;SDS011;6753;52.520;13.450;2023-05-10T00:08:51;969.67;;;789.10;;
13368;SDS011;6753;52.520;13.450;2023-05-10T00:09:02;969.25;;;788.80;;
13368;SDS011;6753;52.520;13.450;2023-05-10T00:09:13;966.28;;;788.05;;
13368;SDS011;6753;52.520;13.450;2023-05-10T00:09:24;963.42;;;786.38;;
13368;SDS011;6753;52.520;13.450;2023-05-10T00:09:34;964.73;;;787.17;;
13368;SDS011;6753;52.520;13.450;2023-05-10T00:09:46;963.83;;;785.45;;
13368;SDS011;6753;52.520;13.450;2023-05-10T00:09:57;959.17;;;782.70;;
13368;SDS011;6753;52.520;13.450;2023-05-10T00:10:08;957.97;;;781.80;;
13368;SDS011;6753;52.520;13.450;2023-05-10T00:10:19;958.53;;;781.42;;
13368;SDS011;6753;52.520;13.450;2023-05-10T00:10:30;957.58;;;780.33;;
13368;SDS011;6753;52.520;13.450;2023-05-10T00:10:41;954.13;;;776.03;;
13368;SDS011;6753;52.520;13.450;2023-05-10T00:10:51;950.73;;;774.57;;
13368;SDS011;6753;52.520;13.450;2023-05-10T00:11:03;947.00;;;771.22;;
13368;SDS011;6753;52.520;13.450;2023-05-10T00:11:14;937.35;;;766.08;;
13368;SDS011;6753;52.520;13.450;2023-05-10T00:11:25;929.20;;;762.13;;
13368;SDS011;6753;52.520;13.450;2023-05-10T00:11:36;927.60;;;761.25;;
13368;SDS011;6753;52.520;13.450;2023-05-10T00:11:47;925.37;;;759.97;;
13368;SDS011;6753;52.520;13.450;2023-05-10T00:11:57;927.40;;;758.53;;
13368;SDS011;6753;52.520;13.450;2023-05-10T00:12:09;929.88;;;758.50;;
13368;SDS011;6753;52.520;13.450;2023-05-10T00:12:19;934.67;;;760.25;;
13368;SDS011;6753;52.520;13.450;2023-05-10T00:12:30;937.80;;;763.03;;
13368;SDS011;6753;52.520;13.450;2023-05-10T00:12:41;939.03;;;762.57;;
13368;SDS011;6753;52.520;13.450;2023-05-10T00:12:53;940.90;;;763.80;;
13368;SDS011;6753;52.520;13.450;2023-05-10T00:13:03;939.20;;;765.28;;
13368;SDS011;6753;52.520;13.450;2023-05-10T00:13:14;938.05;;;767.15;;
13368;SDS011;6753;52.520;13.450;2023-05-10T00:13:25;935.97;;;766.92;;
13368;SDS011;6753;52.520;13.450;2023-05-10T00:13:36;932.90;;;764.57;;
13368;SDS011;6753;52.520;13.450;2023-05-10T00:13:47;931.10;;;762.70;;
13368;SDS011;6753;52.520;13.450;2023-05-10T00:13:57;932.75;;;761.40;;
13368;SDS011;6753;52.520;13.450;2023-05-10T00:14:08;929.88;;;757.45;;
13368;SDS011;6753;52.520;13.450;2023-05-10T00:14:19;930.83;;;756.17;;
13368;SDS011;6753;52.520;13.450;2023-05-10T00:14:31;932.40;;;758.17;;
13368;SDS011;6753;52.520;13.450;2023-05-10T00:14:41;932.03;;;758.33;;
13368;SDS011;6753;52.520;13.450;2023-05-10T00:14:52;932.50;;;759.97;;
13368;SDS011;6753;52.520;13.450;2023-05-10T00:15:03;933.20;;;761.30;;
13368;SDS011;6753;52.520;13.450;2023-05-10T00:15:15;933.58;;;762.92;;
13368;SDS011;6753;52.520;13.450;2023-05-10T00:15:26;934.95;;;763.67;;
13368;SDS011;6753;52.520;13.450;2023-05-10T00:15:37;933.73;;;763.97;;
13368;SDS011;6753;52.520;13.450;2023-05-10T00:15:48;933.97;;;764.65;;
13368;SDS011;6753;52.520;13.450;2023-05-10T00:16:00;932.97;;;766.20;;
13368;SDS011;6753;52.520;13.450;2023-05-10T00:16:11;939.70;;;771.15;;
13368;SDS011;6753;52.520;13.450;2023-05-10T00:16:23;941.20;;;770.55;;
13368;SDS011;6753;52.520;13.450;2023-05-10T00:16:33;945.92;;;772.70;;
13368;SDS011;6753;52.520;13.450;2023-05-10T00:16:44;947.40;;;773.10;;
13368;SDS011;6753;52.520;13.450;2023-05-10T00:16:55;946.50;;;773.08;;
13368;SDS011;6753;52.520;13.450;2023-05-10T00:17:06;948.50;;;772.50;;
13368;SDS011;6753;52.520;13.450;2023-05-10T00:17:16;948.78;;;773.58;;
13368;SDS011;6753;52.520;13.450;2023-05-10T00:17:28;949.75;;;774.33;;
13368;SDS011;6753;52.520;13.450;2023-05-10T00:17:39;947.70;;;772.58;;
13368;SDS011;6753;52.520;13.450;2023-05-10T00:17:50;948.35;;;772.53;;
13368;SDS011;6753;52.520;13.450;2023-05-10T00:18:01;940.85;;;767.58;;
13368;SDS011;6753;52.520;13.450;2023-05-10T00:18:12;935.17;;;763.15;;
13368;SDS011;6753;52.520;13.450;2023-05-10T00:18:22;923.43;;;756.67;;
13368;SDS011;6753;52.520;13.450;2023-05-10T00:18:33;919.35;;;752.35;;
13368;SDS011;6753;52.520;13.450;2023-05-10T00:18:44;912.67;;;747.92;;
13368;SDS011;6753;52.520;13.450;2023-05-10T00:18:56;914.08;;;747.78;;
13368;SDS011;6753;52.520;13.450;2023-05-10T00:19:06;912.43;;;745.60;;
13368;SDS011;6753;52.520;13.450;2023-05-10T00:19:17;910.40;;;744.92;;
13368;SDS011;6753;52.520;13.450;2023-05-10T00:19:28;908.33;;;744.13;;
13368;SDS011;6753;52.520;13.450;2023-05-10T00:19:38;906.83;;;744.37;;
13368;SDS011;6753;52.520;13.450;2023-05-10T00:19:49;906.90;;;745.63;;
13368;SDS011;6753;52.520;13.450;2023-05-10T00:20:00;904.00;;;745.70;;
13368;SDS011;6753;52.520;13.450;2023-05-10T00:20:11;906.70;;;749.33;;
13368;SDS011;6753;52.520;13.450;2023-05-10T00:20:22;910.75;;;749.45;;
13368;SDS011;6753;52.520;13.450;2023-05-10T00:20:35;910.75;;;749.88;;
13368;SDS011;6753;52.520;13.450;2023-05-10T00:20:46;909.13;;;748.53;;
13368;SDS011;6753;52.520;13.450;2023-05-10T00:20:56;909.72;;;745.85;;
13368;SDS011;6753;52.520;13.450;2023-05-10T00:21:07;907.35;;;744.17;;
13368;SDS011;6753;52.520;13.450;2023-05-10T00:21:18;902.83;;;741.70;;
13368;SDS011;6753;52.520;13.450;2023-05-10T00:21:29;902.67;;;741.22;;
13368;SDS011;6753;52.520;13.450;2023-05-10T00:21:40;904.30;;;742.00;;
13368;SDS011;6753;52.520;13.450;2023-05-10T00:21:50;904.72;;;740.90;;
13368;SDS011;6753;52.520;13.450;2023-05-10T00:22:02;906.53;;;742.40;;
13368;SDS011;6753;52.520;13.450;2023-05-10T00:22:13;907.50;;;742.23;;
13368;SDS011;6753;52.520;13.450;2023-05-10T00:22:23;905.85;;;741.63;;
13368;SDS011;6753;52.520;13.450;2023-05-10T00:22:34;903.90;;;739.97;;
13368;SDS011;6753;52.520;13.450;2023-05-10T00:22:45;902.15;;;740.85;;
13368;SDS011;6753;52.520;13.450;2023-05-10T00:22:56;899.60;;;739.97;;
13368;SDS011;6753;52.520;13.450;2023-05-10T00:23:06;896.75;;;736.58;;
13368;SDS011;6753;52.520;13.450;2023-05-10T00:23:17;896.22;;;736.95;;
13368;SDS011;6753;52.520;13.450;2023-05-10T00:23:28;896.90;;;737.83;;
13368;SDS011;6753;52.520;13.450;2023-05-10T00:23:39;896.33;;;737.42;;
13368;SDS011;6753;52.520;13.450;2023-05-10T00:23:50;898.38;;;738.05;;
13368;SDS011;6753;52.520;13.450;2023-05-10T00:24:01;898.67;;;739.20;;
13368;SDS011;6753;52.520;13.450;2023-05-10T00:24:12;899.85;;;741.05;;
13368;SDS011;6753;52.520;13.450;2023-05-10T00:24:23;902.70;;;740.65;;
13368;SDS011;6753;52.520;13.450;2023-05-10T00:24:33;905.08;;;741.42;;
13368;SDS011;6753;52.520;13.450;2023-05-10T00:24:44;906.05;;;741.65;;
13368;SDS011;6753;52.520;13.450;2023-05-10T00:24:55;905.33;;;740.17;;
13368;SDS011;6753;52.520;13.450;2023-05-10T00:25:06;906.03;;;740.55;;
13368;SDS011;6753;52.520;13.450;2023-05-10T00:25:18;903.95;;;738.80;;
13368;SDS011;6753;52.520;13.450;2023-05-10T00:25:31;899.10;;;737.05;;
13368;SDS011;6753;52.520;13.450;2023-05-10T00:25:42;896.88;;;737.60;;
13368;SDS011;6753;52.520;13.450;2023-05-10T00:25:53;894.28;;;737.90;;
13368;SDS011;6753;52.520;13.450;2023-05-10T00:26:03;893.00;;;736.97;;
13368;SDS011;6753;52.520;13.450;2023-05-10T00:26:14;892.08;;;736.65;;
13368;SDS011;6753;52.520;13.450;2023-05-10T00:26:26;890.90;;;735.95;;
13368;SDS011;6753;52.520;13.450;2023-05-10T00:26:38;891.70;;;735.97;;
13368;SDS011;6753;52.520;13.450;2023-05-10T00:26:49;892.25;;;736.75;;
13368;SDS011;6753;52.520;13.450;2023-05-10T00:26:59;893.23;;;737.63;;
13368;SDS011;6753;52.520;13.450;2023-05-10T00:27:10;893.88;;;736.92;;
13368;SDS011;6753;52.520;13.450;2023-05-10T00:27:21;894.97;;;739.13;;
13368;SDS011;6753;52.520;13.450;2023-05-10T00:27:32;893.95;;;739.28;;
13368;SDS011;6753;52.520;13.450;2023-05-10T00:27:42;898.50;;;744.75;;
13368;SDS011;6753;52.520;13.450;2023-05-10T00:27:53;899.40;;;745.93;;
13368;SDS011;6753;52.520;13.450;2023-05-10T00:28:05;902.13;;;748.97;;
13368;SDS011;6753;52.520;13.450;2023-05-10T00:28:16;907.20;;;751.30;;
13368;SDS011;6753;52.520;13.450;2023-05-10T00:28:27;911.50;;;754.08;;
13368;SDS011;6753;52.520;13.450;2023-05-10T00:28:38;911.92;;;751.22;;
13368;SDS011;6753;52.520;13.450;2023-05-10T00:28:49;909.20;;;748.22;;
13368;SDS011;6753;52.520;13.450;2023-05-10T00:28:59;905.10;;;744.73;;
13368;SDS011;6753;52.520;13.450;2023-05-10T00:29:10;901.28;;;742.30;;
13368;SDS011;6753;52.520;13.450;2023-05-10T00:29:21;896.28;;;739.47;;
13368;SDS011;6753;52.520;13.450;2023-05-10T00:29:33;898.53;;;742.20;;
13368;SDS011;6753;52.520;13.450;2023-05-10T00:29:43;901.85;;;743.83;;
13368;SDS011;6753;52.520;13.450;2023-05-10T00:29:54;907.10;;;745.95;;
13368;SDS011;6753;52.520;13.450;2023-05-10T00:30:05;908.83;;;747.28;;
13368;SDS011;6753;52.520;13.450;2023-05-10T00:30:17;912.30;;;748.97;;
13368;SDS011;6753;52.520;13.450;2023-05-10T00:30:28;919.90;;;751.80;;
13368;SDS011;6753;52.520;13.450;2023-05-10T00:30:39;916.13;;;750.97;;
13368;SDS011;6753;52.520;13.450;2023-05-10T00:30:50;912.83;;;752.40;;
13368;SDS011;6753;52.520;13.450;2023-05-10T00:31:05;914.80;;;754.60;;
13368;SDS011;6753;52.520;13.450;2023-05-10T00:31:15;922.17;;;758.47;;
13368;SDS011;6753;52.520;13.450;2023-05-10T00:31:26;918.05;;;757.33;;
13368;SDS011;6753;52.520;13.450;2023-05-10T00:31:37;915.97;;;754.97;;
13368;SDS011;6753;52.520;13.450;2023-05-10T00:31:48;918.00;;;756.38;;
13368;SDS011;6753;52.520;13.450;2023-05-10T00:31:58;920.40;;;758.00;;
13368;SDS011;6753;52.520;13.450;2023-05-10T00:32:09;922.60;;;759.22;;
13368;SDS011;6753;52.520;13.450;2023-05-10T00:32:20;918.65;;;758.63;;
13368;SDS011;6753;52.520;13.450;2023-05-10T00:32:32;919.25;;;756.92;;
13368;SDS011;6753;52.520;13.450;2023-05-10T00:32:43;914.83;;;753.90;;
13368;SDS011;6753;52.520;13.450;2023-05-10T00:32:53;908.17;;;749.35;;
13368;SDS011;6753;52.520;13.450;2023-05-10T00:33:04;906.38;;;745.85;;
13368;SDS011;6753;52.520;13.450;2023-05-10T00:33:15;923.47;;;756.50;;
13368;SDS011;6753;52.520;13.450;2023-05-10T00:33:26;938.50;;;767.78;;
13368;SDS011;6753;52.520;13.450;2023-05-10T00:33:36;948.05;;;774.33;;
13368;SDS011;6753;52.520;13.450;2023-05-10T00:33:47;963.05;;;783.88;;
13368;SDS011;6753;52.520;13.450;2023-05-10T00:33:59;970.00;;;792.22;;
13368;SDS011;6753;52.520;13.450;2023-05-10T00:34:10;962.97;;;787.95;;
13368;SDS011;6753;52.520;13.450;2023-05-10T00:34:21;939.58;;;772.28;;
13368;SDS011;6753;52.520;13.450;2023-05-10T00:34:31;937.50;;;771.50;;
13368;SDS011;6753;52.520;13.450;2023-05-10T00:34:42;953.80;;;781.30;;
13368;SDS011;6753;52.520;13.450;2023-05-10T00:34:53;952.33;;;780.33;;
13368;SDS011;6753;52.520;13.450;2023-05-10T00:35:04;957.65;;;781.95;;
13368;SDS011;6753;52.520;13.450;2023-05-10T00:35:16;957.85;;;784.13;;
13368;SDS011;6753;52.520;13.450;2023-05-10T00:35:27;951.28;;;779.80;;
13368;SDS011;6753;52.520;13.450;2023-05-10T00:35:39;935.33;;;769.95;;
13368;SDS011;6753;52.520;13.450;2023-05-10T00:35:50;916.25;;;757.85;;
13368;SDS011;6753;52.520;13.450;2023-05-10T00:36:01;914.15;;;755.97;;
13368;SDS011;6753;52.520;13.450;2023-05-10T00:36:12;906.53;;;752.22;;
13368;SDS011;6753;52.520;13.450;2023-05-10T00:36:23;916.97;;;755.15;;
13368;SDS011;6753;52.520;13.450;2023-05-10T00:36:34;923.13;;;754.30;;
13368;SDS011;6753;52.520;13.450;2023-05-10T00:36:45;932.13;;;754.28;;
13368;SDS011;6753;52.520;13.450;2023-05-10T00:36:56;933.80;;;756.47;;
13368;SDS011;6753;52.520;13.450;2023-05-10T00:37:06;930.50;;;752.80;;
13368;SDS011;6753;52.520;13.450;2023-05-10T00:37:17;929.17;;;750.70;;
13368;SDS011;6753;52.520;13.450;2023-05-10T00:37:28;917.97;;;748.88;;
13368;SDS011;6753;52.520;13.450;2023-05-10T00:37:39;915.10;;;746.87;;
13368;SDS011;6753;52.520;13.450;2023-05-10T00:37:50;909.65;;;746.05;;
13368;SDS011;6753;52.520;13.450;2023-05-10T00:38:00;908.87;;;744.37;;
13368;SDS011;6753;52.520;13.450;2023-05-10T00:38:11;911.33;;;746.13;;
13368;SDS011;6753;52.520;13.450;2023-05-10T00:38:22;916.60;;;751.88;;
13368;SDS011;6753;52.520;13.450;2023-05-10T00:38:34;928.17;;;759.03;;
13368;SDS011;6753;52.520;13.450;2023-05-10T00:38:45;935.85;;;765.78;;
13368;SDS011;6753;52.520;13.450;2023-05-10T00:38:55;940.90;;;772.50;;
13368;SDS011;6753;52.520;13.450;2023-05-10T00:39:06;943.25;;;775.58;;
13368;SDS011;6753;52.520;13.450;2023-05-10T00:39:17;946.80;;;778.05;;
13368;SDS011;6753;52.520;13.450;2023-05-10T00:39:28;942.50;;;776.22;;
13368;SDS011;6753;52.520;13.450;2023-05-10T00:39:41;936.50;;;773.53;;
13368;SDS011;6753;52.520;13.450;2023-05-10T00:39:52;931.30;;;769.47;;
13368;SDS011;6753;52.520;13.450;2023-05-10T00:40:04;933.72;;;768.85;;
13368;SDS011;6753;52.520;13.450;2023-05-10T00:40:16;933.47;;;768.55;;
13368;SDS011;6753;52.520;13.450;2023-05-10T00:40:27;934.30;;;767.30;;
13368;SDS011;6753;52.520;13.450;2023-05-10T00:40:38;930.90;;;768.22;;
13368;SDS011;6753;52.520;13.450;2023-05-10T00:40:49;935.08;;;768.22;;
13368;SDS011;6753;52.520;13.450;2023-05-10T00:41:00;934.07;;;770.20;;
13368;SDS011;6753;52.520;13.450;2023-05-10T00:41:11;934.58;;;771.97;;
13368;SDS011;6753;52.520;13.450;2023-05-10T00:41:21;932.92;;;770.63;;
13368;SDS011;6753;52.520;13.450;2023-05-10T00:41:32;932.55;;;770.15;;
13368;SDS011;6753;52.520;13.450;2023-05-10T00:41:44;937.45;;;770.70;;
13368;SDS011;6753;52.520;13.450;2023-05-10T00:41:55;933.70;;;769.72;;
13368;SDS011;6753;52.520;13.450;2023-05-10T00:42:05;933.13;;;766.88;;
13368;SDS011;6753;52.520;13.450;2023-05-10T00:42:16;931.25;;;768.47;;
13368;SDS011;6753;52.520;13.450;2023-05-10T00:42:27;938.17;;;771.60;;
13368;SDS011;6753;52.520;13.450;2023-05-10T00:42:38;940.75;;;772.80;;
13368;SDS011;6753;52.520;13.450;2023-05-10T00:42:48;943.22;;;773.80;;
13368;SDS011;6753;52.520;13.450;2023-05-10T00:42:59;945.25;;;774.10;;
13368;SDS011;6753;52.520;13.450;2023-05-10T00:43:11;950.08;;;776.67;;
13368;SDS011;6753;52.520;13.450;2023-05-10T00:43:22;952.55;;;778.70;;
13368;SDS011;6753;52.520;13.450;2023-05-10T00:43:32;955.15;;;780.30;;
13368;SDS011;6753;52.520;13.450;2023-05-10T00:43:43;955.77;;;780.83;;
13368;SDS011;6753;52.520;13.450;2023-05-10T00:43:54;962.83;;;785.65;;
13368;SDS011;6753;52.520;13.450;2023-05-10T00:44:05;964.45;;;785.47;;
13368;SDS011;6753;52.520;13.450;2023-05-10T00:44:15;965.42;;;785.53;;
13368;SDS011;6753;52.520;13.450;2023-05-10T00:44:26;962.30;;;784.93;;
13368;SDS011;6753;52.520;13.450;2023-05-10T00:44:38;957.13;;;782.78;;
13368;SDS011;6753;52.520;13.450;2023-05-10T00:44:49;953.92;;;782.50;;
13368;SDS011;6753;52.520;13.450;2023-05-10T00:45:00;955.63;;;783.75;;
13368;SDS011;6753;52.520;13.450;2023-05-10T00:45:10;962.35;;;788.53;;
13368;SDS011;6753;52.520;13.450;2023-05-10T00:45:21;959.30;;;788.20;;
13368;SDS011;6753;52.520;13.450;2023-05-10T00:45:32;967.92;;;791.13;;
13368;SDS011;6753;52.520;13.450;2023-05-10T00:45:44;971.90;;;792.13;;
13368;SDS011;6753;52.520;13.450;2023-05-10T00:45:57;968.13;;;791.05;;
13368;SDS011;6753;52.520;13.450;2023-05-10T00:46:07;960.60;;;786.28;;
13368;SDS011;6753;52.520;13.450;2023-05-10T00:46:18;964.97;;;788.00;;
13368;SDS011;6753;52.520;13.450;2023-05-10T00:46:30;967.30;;;788.47;;
13368;SDS011;6753;52.520;13.450;2023-05-10T00:46:41;969.67;;;790.10;;
13368;SDS011;6753;52.520;13.450;2023-05-10T00:46:52;970.20;;;791.70;;
13368;SDS011;6753;52.520;13.450;2023-05-10T00:47:03;973.20;;;794.20;;
13368;SDS011;6753;52.520;13.450;2023-05-10T00:47:13;971.80;;;794.83;;
13368;SDS011;6753;52.520;13.450;2023-05-10T00:47:26;968.88;;;795.58;;
13368;SDS011;6753;52.520;13.450;2023-05-10T00:47:38;968.33;;;796.58;;
13368;SDS011;6753;52.520;13.450;2023-05-10T00:47:49;969.03;;;797.45;;
13368;SDS011;6753;52.520;13.450;2023-05-10T00:48:02;969.00;;;799.15;;
13368;SDS011;6753;52.520;13.450;2023-05-10T00:48:13;972.67;;;800.83;;
13368;SDS011;6753;52.520;13.450;2023-05-10T00:48:24;978.00;;;800.45;;
13368;SDS011;6753;52.520;13.450;2023-05-10T00:48:35;977.35;;;799.05;;
13368;SDS011;6753;52.520;13.450;2023-05-10T00:48:46;975.38;;;798.22;;
13368;SDS011;6753;52.520;13.450;2023-05-10T00:48:58;973.83;;;797.72;;
13368;SDS011;6753;52.520;13.450;2023-05-10T00:49:09;975.03;;;798.10;;
13368;SDS011;6753;52.520;13.450;2023-05-10T00:49:20;972.13;;;799.10;;
13368;SDS011;6753;52.520;13.450;2023-05-10T00:49:31;970.30;;;798.90;;
13368;SDS011;6753;52.520;13.450;2023-05-10T00:49:42;971.95;;;800.20;;
13368;SDS011;6753;52.520;13.450;2023-05-10T00:49:53;971.72;;;801.60;;
13368;SDS011;6753;52.520;13.450;2023-05-10T00:50:06;970.55;;;799.92;;
13368;SDS011;6753;52.520;13.450;2023-05-10T00:50:19;974.17;;;801.63;;
13368;SDS011;6753;52.520;13.450;2023-05-10T00:50:30;972.88;;;800.20;;
13368;SDS011;6753;52.520;13.450;2023-05-10T00:50:42;972.67;;;800.70;;
13368;SDS011;6753;52.520;13.450;2023-05-10T00:50:53;977.85;;;803.42;;
13368;SDS011;6753;52.520;13.450;2023-05-10T00:51:04;981.90;;;804.37;;
13368;SDS011;6753;52.520;13.450;2023-05-10T00:51:15;981.47;;;804.25;;
13368;SDS011;6753;52.520;13.450;2023-05-10T00:51:27;982.97;;;806.55;;
13368;SDS011;6753;52.520;13.450;2023-05-10T00:51:38;983.80;;;807.03;;
13368;SDS011;6753;52.520;13.450;2023-05-10T00:51:49;979.75;;;805.33;;
13368;SDS011;6753;52.520;13.450;2023-05-10T00:52:00;978.72;;;803.10;;
13368;SDS011;6753;52.520;13.450;2023-05-10T00:52:12;980.50;;;804.13;;
13368;SDS011;6753;52.520;13.450;2023-05-10T00:52:22;980.10;;;803.50;;
13368;SDS011;6753;52.520;13.450;2023-05-10T00:52:33;980.05;;;801.40;;
13368;SDS011;6753;52.520;13.450;2023-05-10T00:52:44;975.70;;;797.47;;
13368;SDS011;6753;52.520;13.450;2023-05-10T00:52:56;966.88;;;793.05;;
13368;SDS011;6753;52.520;13.450;2023-05-10T00:53:07;960.50;;;789.10;;
13368;SDS011;6753;52.520;13.450;2023-05-10T00:53:19;951.92;;;785.00;;
13368;SDS011;6753;52.520;13.450;2023-05-10T00:53:30;945.95;;;781.47;;
13368;SDS011;6753;52.520;13.450;2023-05-10T00:53:42;945.60;;;780.20;;
13368;SDS011;6753;52.520;13.450;2023-05-10T00:53:55;946.88;;;780.20;;
13368;SDS011;6753;52.520;13.450;2023-05-10T00:54:07;948.13;;;780.63;;
13368;SDS011;6753;52.520;13.450;2023-05-10T00:54:18;946.30;;;777.88;;
13368;SDS011;6753;52.520;13.450;2023-05-10T00:54:28;943.13;;;776.85;;
13368;SDS011;6753;52.520;13.450;2023-05-10T00:54:40;942.85;;;777.92;;
13368;SDS011;6753;52.520;13.450;2023-05-10T00:54:51;942.85;;;778.38;;
13368;SDS011;6753;52.520;13.450;2023-05-10T00:55:02;945.97;;;779.00;;
13368;SDS011;6753;52.520;13.450;2023-05-10T00:55:14;947.72;;;780.20;;
13368;SDS011;6753;52.520;13.450;2023-05-10T00:55:25;948.85;;;779.60;;
13368;SDS011;6753;52.520;13.450;2023-05-10T00:55:36;947.45;;;780.00;;
13368;SDS011;6753;52.520;13.450;2023-05-10T00:55:48;948.97;;;780.45;;
13368;SDS011;6753;52.520;13.450;2023-05-10T00:55:59;945.75;;;779.90;;
13368;SDS011;6753;52.520;13.450;2023-05-10T00:56:10;944.00;;;778.67;;
13368;SDS011;6753;52.520;13.450;2023-05-10T00:56:21;941.15;;;780.50;;
13368;SDS011;6753;52.520;13.450;2023-05-10T00:56:33;945.03;;;781.40;;
13368;SDS011;6753;52.520;13.450;2023-05-10T00:56:44;943.35;;;780.63;;
13368;SDS011;6753;52.520;13.450;2023-05-10T00:56:58;944.40;;;780.03;;
13368;SDS011;6753;52.520;13.450;2023-05-10T00:57:09;942.25;;;780.38;;
13368;SDS011;6753;52.520;13.450;2023-05-10T00:57:20;944.80;;;779.38;;
13368;SDS011;6753;52.520;13.450;2023-05-10T00:57:31;945.60;;;779.25;;
13368;SDS011;6753;52.520;13.450;2023-05-10T00:57:42;944.45;;;777.78;;
13368;SDS011;6753;52.520;13.450;2023-05-10T00:57:54;946.00;;;777.38;;
13368;SDS011;6753;52.520;13.450;2023-05-10T00:58:05;946.17;;;777.22;;
13368;SDS011;6753;52.520;13.450;2023-05-10T00:58:16;946.22;;;777.15;;
13368;SDS011;6753;52.520;13.450;2023-05-10T00:58:27;942.92;;;776.45;;
13368;SDS011;6753;52.520;13.450;2023-05-10T00:58:38;941.80;;;777.70;;
13368;SDS011;6753;52.520;13.450;2023-05-10T00:58:49;938.22;;;777.97;;
13368;SDS011;6753;52.520;13.450;2023-05-10T00:59:00;939.00;;;775.53;;
13368;SDS011;6753;52.520;13.450;2023-05-10T00:59:12;938.25;;;775.00;;
13368;SDS011;6753;52.520;13.450;2023-05-10T00:59:23;940.28;;;775.35;;
13368;SDS011;6753;52.520;13.450;2023-05-10T00:59:34;941.38;;;775.10;;
13368;SDS011;6753;52.520;13.450;2023-05-10T00:59:45;943.00;;;775.58;;
13368;SDS011;6753;52.520;13.450;2023-05-10T00:59:56;941.43;;;775.70;;
13368;SDS011;6753;52.520;13.450;2023-05-10T01:00:08;940.83;;;775.75;;
13368;SDS011;6753;52.520;13.450;2023-05-10T01:00:19;938.53;;;774.53;;
13368;SDS011;6753;52.520;13.450;2023-05-10T01:00:31;939.28;;;774.10;;
13368;SDS011;6753;52.520;13.450;2023-05-10T01:00:44;936.65;;;773.70;;
13368;SDS011;6753;52.520;13.450;2023-05-10T01:00:56;936.13;;;773.40;;
13368;SDS011;6753;52.520;13.450;2023-05-10T01:01:08;934.90;;;771.70;;
13368;SDS011;6753;52.520;13.450;2023-05-10T01:01:20;933.03;;;769.88;;
13368;SDS011;6753;52.520;13.450;2023-05-10T01:01:31;930.93;;;769.50;;
13368;SDS011;6753;52.520;13.450;2023-05-10T01:01:42;931.83;;;767.95;;
13368;SDS011;6753;52.520;13.450;2023-05-10T01:01:53;930.13;;;764.90;;
13368;SDS011;6753;52.520;13.450;2023-05-10T01:02:04;927.42;;;763.08;;
13368;SDS011;6753;52.520;13.450;2023-05-10T01:02:17;927.65;;;765.97;;
13368;SDS011;6753;52.520;13.450;2023-05-10T01:02:28;926.10;;;763.13;;
13368;SDS011;6753;52.520;13.450;2023-05-10T01:02:43;923.83;;;761.25;;
13368;SDS011;6753;52.520;13.450;2023-05-10T01:02:54;923.78;;;762.45;;
13368;SDS011;6753;52.520;13.450;2023-05-10T01:03:05;922.40;;;763.45;;
13368;SDS011;6753;52.520;13.450;2023-05-10T01:03:15;921.00;;;760.83;;